sensor_id;sensor_type;location;lat;lon;timestamp;P1;durP1;ratioP1;P2;durP2;ratioP2
6013;SDS011;3035;49.928;8.410;2022-08-01T00:02:19;5.20;;;1.80;;
6013;SDS011;3035;49.928;8.410;2022-08-01T00:04:47;10.93;;;1.40;;
6013;SDS011;3035;49.928;8.410;2022-08-01T00:07:16;2.20;;;1.80;;
6013;SDS011;3035;49.928;8.410;2022-08-01T00:09:44;5.03;;;1.40;;
6013;SDS011;3035;49.928;8.410;2022-08-01T00:12:12;7.03;;;2.03;;
6013;SDS011;3035;49.928;8.410;2022-08-01T00:14:41;4.70;;;1.83;;
6013;SDS011;3035;49.928;8.410;2022-08-01T00:17:09;13.57;;;2.10;;
6013;SDS011;3035;49.928;8.410;2022-08-01T00:19:37;2.00;;;1.80;;
6013;SDS011;3035;49.928;8.410;2022-08-01T00:22:05;3.60;;;1.83;;
6013;SDS011;3035;49.928;8.410;2022-08-01T00:24:34;10.23;;;1.50;;
6013;SDS011;3035;49.928;8.410;2022-08-01T00:27:02;2.83;;;1.70;;
6013;SDS011;3035;49.928;8.410;2022-08-01T00:29:32;4.73;;;1.70;;
6013;SDS011;3035;49.928;8.410;2022-08-01T00:32:01;12.43;;;1.70;;
6013;SDS011;3035;49.928;8.410;2022-08-01T00:34:30;9.77;;;1.70;;
6013;SDS011;3035;49.928;8.410;2022-08-01T00:36:58;5.83;;;1.80;;
6013;SDS011;3035;49.928;8.410;2022-08-01T00:39:26;6.53;;;1.77;;
6013;SDS011;3035;49.928;8.410;2022-08-01T00:41:55;2.90;;;1.63;;
6013;SDS011;3035;49.928;8.410;2022-08-01T00:44:23;4.40;;;1.87;;
6013;SDS011;3035;49.928;8.410;2022-08-01T00:46:51;7.83;;;1.80;;
6013;SDS011;3035;49.928;8.410;2022-08-01T00:49:20;4.00;;;1.50;;
6013;SDS011;3035;49.928;8.410;2022-08-01T00:51:49;2.67;;;1.50;;
6013;SDS011;3035;49.928;8.410;2022-08-01T00:54:17;2.57;;;2.20;;
6013;SDS011;3035;49.928;8.410;2022-08-01T00:56:46;3.57;;;1.67;;
6013;SDS011;3035;49.928;8.410;2022-08-01T00:59:14;2.33;;;1.93;;
6013;SDS011;3035;49.928;8.410;2022-08-01T01:01:43;3.23;;;2.10;;
6013;SDS011;3035;49.928;8.410;2022-08-01T01:04:11;4.73;;;1.70;;
6013;SDS011;3035;49.928;8.410;2022-08-01T01:06:42;9.50;;;1.70;;
6013;SDS011;3035;49.928;8.410;2022-08-01T01:12:31;3.40;;;1.30;;
6013;SDS011;3035;49.928;8.410;2022-08-01T01:15:04;3.53;;;1.83;;
6013;SDS011;3035;49.928;8.410;2022-08-01T01:17:45;14.97;;;1.93;;
6013;SDS011;3035;49.928;8.410;2022-08-01T01:20:37;11.23;;;1.70;;
6013;SDS011;3035;49.928;8.410;2022-08-01T01:26:01;2.70;;;1.63;;
6013;SDS011;3035;49.928;8.410;2022-08-01T01:28:37;2.47;;;1.27;;
6013;SDS011;3035;49.928;8.410;2022-08-01T01:31:08;10.43;;;1.90;;
6013;SDS011;3035;49.928;8.410;2022-08-01T01:33:37;1.53;;;1.10;;
6013;SDS011;3035;49.928;8.410;2022-08-01T01:36:05;6.33;;;1.73;;
6013;SDS011;3035;49.928;8.410;2022-08-01T01:38:34;17.50;;;1.70;;
6013;SDS011;3035;49.928;8.410;2022-08-01T01:41:02;1.53;;;1.43;;
6013;SDS011;3035;49.928;8.410;2022-08-01T01:43:29;2.53;;;1.50;;
6013;SDS011;3035;49.928;8.410;2022-08-01T01:45:58;3.20;;;1.50;;
6013;SDS011;3035;49.928;8.410;2022-08-01T01:48:26;6.70;;;1.83;;
6013;SDS011;3035;49.928;8.410;2022-08-01T01:50:55;1.87;;;1.20;;
6013;SDS011;3035;49.928;8.410;2022-08-01T01:53:23;2.00;;;1.43;;
6013;SDS011;3035;49.928;8.410;2022-08-01T01:55:52;3.17;;;1.27;;
6013;SDS011;3035;49.928;8.410;2022-08-01T01:58:19;4.40;;;1.53;;
6013;SDS011;3035;49.928;8.410;2022-08-01T02:00:48;2.70;;;1.60;;
6013;SDS011;3035;49.928;8.410;2022-08-01T02:03:17;4.33;;;1.40;;
6013;SDS011;3035;49.928;8.410;2022-08-01T02:05:45;7.27;;;1.30;;
6013;SDS011;3035;49.928;8.410;2022-08-01T02:08:14;3.63;;;1.30;;
6013;SDS011;3035;49.928;8.410;2022-08-01T02:10:42;3.80;;;1.50;;
6013;SDS011;3035;49.928;8.410;2022-08-01T02:13:11;4.50;;;1.47;;
6013;SDS011;3035;49.928;8.410;2022-08-01T02:15:39;4.30;;;1.43;;
6013;SDS011;3035;49.928;8.410;2022-08-01T02:18:07;2.17;;;1.37;;
6013;SDS011;3035;49.928;8.410;2022-08-01T02:20:36;8.17;;;2.00;;
6013;SDS011;3035;49.928;8.410;2022-08-01T02:23:06;2.40;;;1.50;;
6013;SDS011;3035;49.928;8.410;2022-08-01T02:25:37;3.87;;;1.40;;
6013;SDS011;3035;49.928;8.410;2022-08-01T02:28:11;2.40;;;1.23;;
6013;SDS011;3035;49.928;8.410;2022-08-01T02:30:40;8.30;;;1.53;;
6013;SDS011;3035;49.928;8.410;2022-08-01T02:33:10;9.30;;;1.27;;
6013;SDS011;3035;49.928;8.410;2022-08-01T02:35:48;8.10;;;1.50;;
6013;SDS011;3035;49.928;8.410;2022-08-01T02:38:15;8.67;;;1.47;;
6013;SDS011;3035;49.928;8.410;2022-08-01T02:40:45;13.40;;;1.60;;
6013;SDS011;3035;49.928;8.410;2022-08-01T02:43:12;3.00;;;1.30;;
6013;SDS011;3035;49.928;8.410;2022-08-01T02:45:41;8.43;;;1.60;;
6013;SDS011;3035;49.928;8.410;2022-08-01T02:48:09;12.07;;;1.60;;
6013;SDS011;3035;49.928;8.410;2022-08-01T02:50:38;9.80;;;1.27;;
6013;SDS011;3035;49.928;8.410;2022-08-01T02:53:06;4.90;;;1.50;;
6013;SDS011;3035;49.928;8.410;2022-08-01T02:55:34;6.83;;;1.93;;
6013;SDS011;3035;49.928;8.410;2022-08-01T02:58:02;6.30;;;1.67;;
6013;SDS011;3035;49.928;8.410;2022-08-01T03:00:31;1.57;;;1.37;;
6013;SDS011;3035;49.928;8.410;2022-08-01T03:03:00;3.63;;;1.30;;
6013;SDS011;3035;49.928;8.410;2022-08-01T03:05:28;1.33;;;1.20;;
6013;SDS011;3035;49.928;8.410;2022-08-01T03:07:57;9.60;;;1.47;;
6013;SDS011;3035;49.928;8.410;2022-08-01T03:10:26;11.47;;;1.50;;
6013;SDS011;3035;49.928;8.410;2022-08-01T03:12:54;5.90;;;1.53;;
6013;SDS011;3035;49.928;8.410;2022-08-01T03:15:23;1.90;;;1.50;;
6013;SDS011;3035;49.928;8.410;2022-08-01T03:17:51;3.73;;;1.30;;
6013;SDS011;3035;49.928;8.410;2022-08-01T03:20:19;4.23;;;1.47;;
6013;SDS011;3035;49.928;8.410;2022-08-01T03:22:47;3.83;;;1.30;;
6013;SDS011;3035;49.928;8.410;2022-08-01T03:25:15;4.93;;;1.20;;
6013;SDS011;3035;49.928;8.410;2022-08-01T03:27:43;2.30;;;1.30;;
6013;SDS011;3035;49.928;8.410;2022-08-01T03:30:12;20.10;;;1.97;;
6013;SDS011;3035;49.928;8.410;2022-08-01T03:32:42;7.43;;;1.70;;
6013;SDS011;3035;49.928;8.410;2022-08-01T03:35:10;9.43;;;1.40;;
6013;SDS011;3035;49.928;8.410;2022-08-01T03:37:42;6.60;;;1.70;;
6013;SDS011;3035;49.928;8.410;2022-08-01T03:40:11;2.97;;;1.30;;
6013;SDS011;3035;49.928;8.410;2022-08-01T03:42:46;21.40;;;1.53;;
6013;SDS011;3035;49.928;8.410;2022-08-01T03:45:15;14.90;;;1.70;;
6013;SDS011;3035;49.928;8.410;2022-08-01T03:47:43;7.10;;;1.40;;
6013;SDS011;3035;49.928;8.410;2022-08-01T03:50:12;3.30;;;1.40;;
6013;SDS011;3035;49.928;8.410;2022-08-01T03:52:40;16.60;;;1.70;;
6013;SDS011;3035;49.928;8.410;2022-08-01T03:55:08;8.83;;;1.47;;
6013;SDS011;3035;49.928;8.410;2022-08-01T03:57:36;2.80;;;1.40;;
6013;SDS011;3035;49.928;8.410;2022-08-01T04:00:05;3.00;;;1.60;;
6013;SDS011;3035;49.928;8.410;2022-08-01T04:02:34;2.40;;;1.70;;
6013;SDS011;3035;49.928;8.410;2022-08-01T04:05:03;2.47;;;1.30;;
6013;SDS011;3035;49.928;8.410;2022-08-01T04:07:33;13.57;;;1.70;;
6013;SDS011;3035;49.928;8.410;2022-08-01T04:10:03;2.00;;;1.60;;
6013;SDS011;3035;49.928;8.410;2022-08-01T04:12:32;2.73;;;1.60;;
6013;SDS011;3035;49.928;8.410;2022-08-01T04:15:00;2.70;;;1.57;;
6013;SDS011;3035;49.928;8.410;2022-08-01T04:17:28;6.30;;;1.53;;
6013;SDS011;3035;49.928;8.410;2022-08-01T04:19:56;1.70;;;1.27;;
6013;SDS011;3035;49.928;8.410;2022-08-01T04:22:26;4.20;;;1.33;;
6013;SDS011;3035;49.928;8.410;2022-08-01T04:24:55;5.67;;;1.40;;
6013;SDS011;3035;49.928;8.410;2022-08-01T04:27:25;2.43;;;1.27;;
6013;SDS011;3035;49.928;8.410;2022-08-01T04:29:51;7.77;;;2.60;;
6013;SDS011;3035;49.928;8.410;2022-08-01T04:32:21;9.70;;;1.80;;
6013;SDS011;3035;49.928;8.410;2022-08-01T04:34:48;4.93;;;1.20;;
6013;SDS011;3035;49.928;8.410;2022-08-01T04:37:16;14.70;;;1.40;;
6013;SDS011;3035;49.928;8.410;2022-08-01T04:39:44;26.27;;;2.33;;
6013;SDS011;3035;49.928;8.410;2022-08-01T04:42:12;1.30;;;1.10;;
6013;SDS011;3035;49.928;8.410;2022-08-01T04:44:41;3.87;;;1.50;;
6013;SDS011;3035;49.928;8.410;2022-08-01T04:47:09;2.90;;;1.97;;
6013;SDS011;3035;49.928;8.410;2022-08-01T04:49:37;1.93;;;1.20;;
6013;SDS011;3035;49.928;8.410;2022-08-01T04:52:06;4.57;;;1.40;;
6013;SDS011;3035;49.928;8.410;2022-08-01T04:54:34;6.90;;;1.37;;
6013;SDS011;3035;49.928;8.410;2022-08-01T04:57:03;7.10;;;1.73;;
6013;SDS011;3035;49.928;8.410;2022-08-01T04:59:33;1.97;;;1.60;;
6013;SDS011;3035;49.928;8.410;2022-08-01T05:02:12;1.70;;;1.20;;
6013;SDS011;3035;49.928;8.410;2022-08-01T05:04:41;3.90;;;1.67;;
6013;SDS011;3035;49.928;8.410;2022-08-01T05:07:09;4.13;;;1.57;;
6013;SDS011;3035;49.928;8.410;2022-08-01T05:09:38;6.93;;;1.80;;
6013;SDS011;3035;49.928;8.410;2022-08-01T05:12:06;4.73;;;1.70;;
6013;SDS011;3035;49.928;8.410;2022-08-01T05:14:35;14.23;;;1.60;;
6013;SDS011;3035;49.928;8.410;2022-08-01T05:17:04;6.23;;;1.50;;
6013;SDS011;3035;49.928;8.410;2022-08-01T05:19:32;6.40;;;1.30;;
6013;SDS011;3035;49.928;8.410;2022-08-01T05:22:04;11.20;;;1.80;;
6013;SDS011;3035;49.928;8.410;2022-08-01T05:24:30;6.37;;;1.57;;
6013;SDS011;3035;49.928;8.410;2022-08-01T05:26:58;2.73;;;1.40;;
6013;SDS011;3035;49.928;8.410;2022-08-01T05:29:27;2.10;;;1.60;;
6013;SDS011;3035;49.928;8.410;2022-08-01T05:31:55;2.43;;;1.40;;
6013;SDS011;3035;49.928;8.410;2022-08-01T05:34:24;2.67;;;1.50;;
6013;SDS011;3035;49.928;8.410;2022-08-01T05:36:51;5.73;;;1.73;;
6013;SDS011;3035;49.928;8.410;2022-08-01T05:39:20;5.70;;;1.63;;
6013;SDS011;3035;49.928;8.410;2022-08-01T05:41:48;1.77;;;1.33;;
6013;SDS011;3035;49.928;8.410;2022-08-01T05:44:17;6.77;;;1.60;;
6013;SDS011;3035;49.928;8.410;2022-08-01T05:46:45;9.20;;;1.47;;
6013;SDS011;3035;49.928;8.410;2022-08-01T05:49:13;2.07;;;1.50;;
6013;SDS011;3035;49.928;8.410;2022-08-01T05:51:41;1.60;;;1.33;;
6013;SDS011;3035;49.928;8.410;2022-08-01T05:54:10;1.70;;;1.30;;
6013;SDS011;3035;49.928;8.410;2022-08-01T05:56:39;3.23;;;1.60;;
6013;SDS011;3035;49.928;8.410;2022-08-01T05:59:07;10.67;;;1.40;;
6013;SDS011;3035;49.928;8.410;2022-08-01T06:01:36;2.43;;;1.60;;
6013;SDS011;3035;49.928;8.410;2022-08-01T06:04:05;12.47;;;1.80;;
6013;SDS011;3035;49.928;8.410;2022-08-01T06:06:33;26.27;;;2.03;;
6013;SDS011;3035;49.928;8.410;2022-08-01T06:09:01;2.80;;;1.50;;
6013;SDS011;3035;49.928;8.410;2022-08-01T06:11:29;6.37;;;1.40;;
6013;SDS011;3035;49.928;8.410;2022-08-01T06:13:57;5.87;;;1.50;;
6013;SDS011;3035;49.928;8.410;2022-08-01T06:16:26;9.33;;;1.90;;
6013;SDS011;3035;49.928;8.410;2022-08-01T06:18:55;2.30;;;1.57;;
6013;SDS011;3035;49.928;8.410;2022-08-01T06:21:23;1.60;;;1.50;;
6013;SDS011;3035;49.928;8.410;2022-08-01T06:23:51;6.07;;;1.60;;
6013;SDS011;3035;49.928;8.410;2022-08-01T06:26:20;2.40;;;1.70;;
6013;SDS011;3035;49.928;8.410;2022-08-01T06:28:48;3.20;;;1.57;;
6013;SDS011;3035;49.928;8.410;2022-08-01T06:31:17;2.23;;;1.43;;
6013;SDS011;3035;49.928;8.410;2022-08-01T06:33:45;2.23;;;1.67;;
6013;SDS011;3035;49.928;8.410;2022-08-01T06:36:14;3.60;;;1.40;;
6013;SDS011;3035;49.928;8.410;2022-08-01T06:38:42;3.33;;;1.50;;
6013;SDS011;3035;49.928;8.410;2022-08-01T06:41:11;2.27;;;1.40;;
6013;SDS011;3035;49.928;8.410;2022-08-01T06:43:40;2.03;;;1.70;;
6013;SDS011;3035;49.928;8.410;2022-08-01T06:46:08;1.40;;;1.30;;
6013;SDS011;3035;49.928;8.410;2022-08-01T06:48:36;2.63;;;1.67;;
6013;SDS011;3035;49.928;8.410;2022-08-01T06:51:04;2.27;;;1.77;;
6013;SDS011;3035;49.928;8.410;2022-08-01T06:53:36;11.50;;;1.50;;
6013;SDS011;3035;49.928;8.410;2022-08-01T06:56:04;2.30;;;1.50;;
6013;SDS011;3035;49.928;8.410;2022-08-01T06:58:32;3.00;;;1.73;;
6013;SDS011;3035;49.928;8.410;2022-08-01T07:01:01;3.50;;;2.13;;
6013;SDS011;3035;49.928;8.410;2022-08-01T07:03:29;4.27;;;1.67;;
6013;SDS011;3035;49.928;8.410;2022-08-01T07:05:57;6.33;;;1.70;;
6013;SDS011;3035;49.928;8.410;2022-08-01T07:08:25;2.20;;;1.53;;
6013;SDS011;3035;49.928;8.410;2022-08-01T07:10:53;2.40;;;2.20;;
6013;SDS011;3035;49.928;8.410;2022-08-01T07:13:22;2.17;;;1.77;;
6013;SDS011;3035;49.928;8.410;2022-08-01T07:15:51;2.77;;;1.90;;
6013;SDS011;3035;49.928;8.410;2022-08-01T07:18:19;4.03;;;1.50;;
6013;SDS011;3035;49.928;8.410;2022-08-01T07:20:47;3.40;;;2.00;;
6013;SDS011;3035;49.928;8.410;2022-08-01T07:23:15;2.60;;;1.77;;
6013;SDS011;3035;49.928;8.410;2022-08-01T07:25:43;6.30;;;2.20;;
6013;SDS011;3035;49.928;8.410;2022-08-01T07:28:12;7.30;;;1.70;;
6013;SDS011;3035;49.928;8.410;2022-08-01T07:30:40;2.93;;;1.80;;
6013;SDS011;3035;49.928;8.410;2022-08-01T07:33:09;5.03;;;1.83;;
6013;SDS011;3035;49.928;8.410;2022-08-01T07:35:38;6.30;;;1.70;;
6013;SDS011;3035;49.928;8.410;2022-08-01T07:38:06;3.93;;;2.03;;
6013;SDS011;3035;49.928;8.410;2022-08-01T07:40:34;4.20;;;1.93;;
6013;SDS011;3035;49.928;8.410;2022-08-01T07:43:02;2.30;;;2.00;;
6013;SDS011;3035;49.928;8.410;2022-08-01T07:45:31;4.23;;;2.40;;
6013;SDS011;3035;49.928;8.410;2022-08-01T07:48:02;13.13;;;2.07;;
6013;SDS011;3035;49.928;8.410;2022-08-01T07:50:30;4.23;;;2.00;;
6013;SDS011;3035;49.928;8.410;2022-08-01T07:52:59;4.40;;;1.90;;
6013;SDS011;3035;49.928;8.410;2022-08-01T07:55:28;5.13;;;2.00;;
6013;SDS011;3035;49.928;8.410;2022-08-01T07:57:57;1.90;;;1.70;;
6013;SDS011;3035;49.928;8.410;2022-08-01T08:00:25;8.30;;;2.03;;
6013;SDS011;3035;49.928;8.410;2022-08-01T08:02:53;3.90;;;1.83;;
6013;SDS011;3035;49.928;8.410;2022-08-01T08:05:21;2.23;;;1.93;;
6013;SDS011;3035;49.928;8.410;2022-08-01T08:07:50;3.10;;;1.97;;
6013;SDS011;3035;49.928;8.410;2022-08-01T08:10:19;1.97;;;1.70;;
6013;SDS011;3035;49.928;8.410;2022-08-01T08:12:47;2.07;;;1.83;;
6013;SDS011;3035;49.928;8.410;2022-08-01T08:15:15;2.27;;;2.07;;
6013;SDS011;3035;49.928;8.410;2022-08-01T08:17:43;11.30;;;1.97;;
6013;SDS011;3035;49.928;8.410;2022-08-01T08:20:11;9.20;;;2.17;;
6013;SDS011;3035;49.928;8.410;2022-08-01T08:22:40;6.30;;;2.57;;
6013;SDS011;3035;49.928;8.410;2022-08-01T08:25:09;2.50;;;1.80;;
6013;SDS011;3035;49.928;8.410;2022-08-01T08:27:37;4.67;;;2.10;;
6013;SDS011;3035;49.928;8.410;2022-08-01T08:30:05;7.20;;;2.80;;
6013;SDS011;3035;49.928;8.410;2022-08-01T08:32:35;9.30;;;2.10;;
6013;SDS011;3035;49.928;8.410;2022-08-01T08:35:03;5.63;;;2.20;;
6013;SDS011;3035;49.928;8.410;2022-08-01T08:37:31;8.10;;;2.00;;
6013;SDS011;3035;49.928;8.410;2022-08-01T08:40:00;4.73;;;1.90;;
6013;SDS011;3035;49.928;8.410;2022-08-01T08:42:28;2.33;;;1.80;;
6013;SDS011;3035;49.928;8.410;2022-08-01T08:44:57;3.67;;;2.40;;
6013;SDS011;3035;49.928;8.410;2022-08-01T08:47:25;6.60;;;2.23;;
6013;SDS011;3035;49.928;8.410;2022-08-01T08:49:54;3.60;;;2.00;;
6013;SDS011;3035;49.928;8.410;2022-08-01T08:52:21;3.70;;;2.00;;
6013;SDS011;3035;49.928;8.410;2022-08-01T08:54:50;4.90;;;2.43;;
6013;SDS011;3035;49.928;8.410;2022-08-01T08:57:19;1.90;;;1.70;;
6013;SDS011;3035;49.928;8.410;2022-08-01T08:59:47;2.57;;;1.90;;
6013;SDS011;3035;49.928;8.410;2022-08-01T09:02:16;4.83;;;1.73;;
6013;SDS011;3035;49.928;8.410;2022-08-01T09:04:44;4.07;;;2.17;;
6013;SDS011;3035;49.928;8.410;2022-08-01T09:07:12;2.20;;;1.97;;
6013;SDS011;3035;49.928;8.410;2022-08-01T09:09:40;3.97;;;1.70;;
6013;SDS011;3035;49.928;8.410;2022-08-01T09:12:08;2.00;;;1.77;;
6013;SDS011;3035;49.928;8.410;2022-08-01T09:14:43;5.50;;;1.93;;
6013;SDS011;3035;49.928;8.410;2022-08-01T09:17:06;3.77;;;2.10;;
6013;SDS011;3035;49.928;8.410;2022-08-01T09:19:36;2.40;;;2.00;;
6013;SDS011;3035;49.928;8.410;2022-08-01T09:22:07;3.03;;;2.00;;
6013;SDS011;3035;49.928;8.410;2022-08-01T09:24:34;2.50;;;1.97;;
6013;SDS011;3035;49.928;8.410;2022-08-01T09:29:43;3.80;;;2.43;;
6013;SDS011;3035;49.928;8.410;2022-08-01T09:32:11;7.43;;;2.37;;
6013;SDS011;3035;49.928;8.410;2022-08-01T09:34:40;2.17;;;1.97;;
6013;SDS011;3035;49.928;8.410;2022-08-01T09:37:08;15.10;;;2.33;;
6013;SDS011;3035;49.928;8.410;2022-08-01T09:39:38;2.60;;;2.40;;
6013;SDS011;3035;49.928;8.410;2022-08-01T09:44:53;2.60;;;1.93;;
6013;SDS011;3035;49.928;8.410;2022-08-01T09:47:21;2.73;;;2.37;;
6013;SDS011;3035;49.928;8.410;2022-08-01T09:49:54;3.73;;;2.03;;
6013;SDS011;3035;49.928;8.410;2022-08-01T09:52:23;4.20;;;2.80;;
6013;SDS011;3035;49.928;8.410;2022-08-01T09:54:54;4.80;;;2.40;;
6013;SDS011;3035;49.928;8.410;2022-08-01T09:57:21;2.30;;;2.10;;
6013;SDS011;3035;49.928;8.410;2022-08-01T09:59:50;3.30;;;2.17;;
6013;SDS011;3035;49.928;8.410;2022-08-01T10:05:02;2.27;;;2.07;;
6013;SDS011;3035;49.928;8.410;2022-08-01T10:07:30;5.43;;;2.27;;
6013;SDS011;3035;49.928;8.410;2022-08-01T10:12:36;4.53;;;2.07;;
6013;SDS011;3035;49.928;8.410;2022-08-01T10:15:04;3.40;;;2.30;;
6013;SDS011;3035;49.928;8.410;2022-08-01T10:17:34;3.40;;;2.13;;
6013;SDS011;3035;49.928;8.410;2022-08-01T10:20:03;7.53;;;1.90;;
6013;SDS011;3035;49.928;8.410;2022-08-01T10:22:33;2.83;;;2.20;;
6013;SDS011;3035;49.928;8.410;2022-08-01T10:25:04;3.73;;;2.40;;
6013;SDS011;3035;49.928;8.410;2022-08-01T10:27:33;2.60;;;2.10;;
6013;SDS011;3035;49.928;8.410;2022-08-01T10:30:02;2.60;;;2.17;;
6013;SDS011;3035;49.928;8.410;2022-08-01T10:32:31;2.30;;;1.87;;
6013;SDS011;3035;49.928;8.410;2022-08-01T10:34:59;2.63;;;2.20;;
6013;SDS011;3035;49.928;8.410;2022-08-01T10:37:27;2.30;;;2.10;;
6013;SDS011;3035;49.928;8.410;2022-08-01T10:39:55;3.60;;;2.13;;
6013;SDS011;3035;49.928;8.410;2022-08-01T10:42:25;2.97;;;2.10;;
6013;SDS011;3035;49.928;8.410;2022-08-01T10:44:53;2.47;;;2.27;;
6013;SDS011;3035;49.928;8.410;2022-08-01T10:47:27;2.33;;;2.00;;
6013;SDS011;3035;49.928;8.410;2022-08-01T10:49:59;2.70;;;1.93;;
6013;SDS011;3035;49.928;8.410;2022-08-01T10:52:26;6.20;;;2.03;;
6013;SDS011;3035;49.928;8.410;2022-08-01T11:00:17;2.27;;;1.50;;
6013;SDS011;3035;49.928;8.410;2022-08-01T11:05:34;2.10;;;1.90;;
6013;SDS011;3035;49.928;8.410;2022-08-01T11:08:06;2.27;;;1.80;;
6013;SDS011;3035;49.928;8.410;2022-08-01T11:10:36;1.53;;;1.43;;
6013;SDS011;3035;49.928;8.410;2022-08-01T11:13:03;1.60;;;1.50;;
6013;SDS011;3035;49.928;8.410;2022-08-01T11:15:31;2.50;;;1.80;;
6013;SDS011;3035;49.928;8.410;2022-08-01T11:18:02;2.60;;;1.80;;
6013;SDS011;3035;49.928;8.410;2022-08-01T11:20:30;3.63;;;1.70;;
6013;SDS011;3035;49.928;8.410;2022-08-01T11:28:32;1.80;;;1.70;;
6013;SDS011;3035;49.928;8.410;2022-08-01T11:33:54;2.13;;;1.93;;
6013;SDS011;3035;49.928;8.410;2022-08-01T11:36:22;2.43;;;2.23;;
6013;SDS011;3035;49.928;8.410;2022-08-01T11:41:41;8.87;;;1.70;;
6013;SDS011;3035;49.928;8.410;2022-08-01T11:44:12;1.47;;;1.37;;
6013;SDS011;3035;49.928;8.410;2022-08-01T11:46:53;1.50;;;1.40;;
6013;SDS011;3035;49.928;8.410;2022-08-01T11:49:26;1.70;;;1.30;;
6013;SDS011;3035;49.928;8.410;2022-08-01T11:52:04;2.47;;;1.50;;
6013;SDS011;3035;49.928;8.410;2022-08-01T11:54:37;2.43;;;1.70;;
6013;SDS011;3035;49.928;8.410;2022-08-01T11:57:07;1.50;;;1.33;;
6013;SDS011;3035;49.928;8.410;2022-08-01T11:59:37;1.33;;;1.23;;
6013;SDS011;3035;49.928;8.410;2022-08-01T12:02:17;7.90;;;1.27;;
6013;SDS011;3035;49.928;8.410;2022-08-01T12:04:48;1.73;;;1.63;;
6013;SDS011;3035;49.928;8.410;2022-08-01T12:07:21;1.57;;;1.23;;
6013;SDS011;3035;49.928;8.410;2022-08-01T12:09:51;1.77;;;1.60;;
6013;SDS011;3035;49.928;8.410;2022-08-01T12:12:17;1.50;;;1.40;;
6013;SDS011;3035;49.928;8.410;2022-08-01T12:14:45;1.63;;;1.53;;
6013;SDS011;3035;49.928;8.410;2022-08-01T12:17:14;1.40;;;1.30;;
6013;SDS011;3035;49.928;8.410;2022-08-01T12:19:42;4.60;;;1.70;;
6013;SDS011;3035;49.928;8.410;2022-08-01T12:22:12;3.20;;;1.60;;
6013;SDS011;3035;49.928;8.410;2022-08-01T12:24:40;1.70;;;1.50;;
6013;SDS011;3035;49.928;8.410;2022-08-01T12:27:08;1.90;;;1.40;;
6013;SDS011;3035;49.928;8.410;2022-08-01T12:29:37;1.90;;;1.70;;
6013;SDS011;3035;49.928;8.410;2022-08-01T12:34:47;2.63;;;1.50;;
6013;SDS011;3035;49.928;8.410;2022-08-01T12:37:16;2.17;;;1.73;;
6013;SDS011;3035;49.928;8.410;2022-08-01T12:39:45;2.67;;;1.37;;
6013;SDS011;3035;49.928;8.410;2022-08-01T12:42:13;2.90;;;1.50;;
6013;SDS011;3035;49.928;8.410;2022-08-01T12:44:42;1.63;;;1.53;;
6013;SDS011;3035;49.928;8.410;2022-08-01T12:47:10;1.70;;;1.60;;
6013;SDS011;3035;49.928;8.410;2022-08-01T12:49:38;1.80;;;1.70;;
6013;SDS011;3035;49.928;8.410;2022-08-01T12:52:07;1.70;;;1.60;;
6013;SDS011;3035;49.928;8.410;2022-08-01T12:57:23;2.50;;;1.50;;
6013;SDS011;3035;49.928;8.410;2022-08-01T12:59:53;2.40;;;1.60;;
6013;SDS011;3035;49.928;8.410;2022-08-01T13:02:30;1.80;;;1.50;;
6013;SDS011;3035;49.928;8.410;2022-08-01T13:04:50;1.77;;;1.53;;
6013;SDS011;3035;49.928;8.410;2022-08-01T13:07:18;3.20;;;1.80;;
6013;SDS011;3035;49.928;8.410;2022-08-01T13:09:49;4.50;;;2.07;;
6013;SDS011;3035;49.928;8.410;2022-08-01T13:12:17;2.63;;;1.60;;
6013;SDS011;3035;49.928;8.410;2022-08-01T13:14:46;2.13;;;1.60;;
6013;SDS011;3035;49.928;8.410;2022-08-01T13:17:29;1.53;;;1.43;;
6013;SDS011;3035;49.928;8.410;2022-08-01T13:19:44;1.40;;;1.30;;
6013;SDS011;3035;49.928;8.410;2022-08-01T13:22:12;2.30;;;1.30;;
6013;SDS011;3035;49.928;8.410;2022-08-01T13:24:40;1.50;;;1.27;;
6013;SDS011;3035;49.928;8.410;2022-08-01T13:27:19;1.93;;;1.40;;
6013;SDS011;3035;49.928;8.410;2022-08-01T13:29:37;5.47;;;1.50;;
6013;SDS011;3035;49.928;8.410;2022-08-01T13:32:12;2.47;;;1.33;;
6013;SDS011;3035;49.928;8.410;2022-08-01T13:34:43;3.43;;;1.80;;
6013;SDS011;3035;49.928;8.410;2022-08-01T13:37:11;1.60;;;1.40;;
6013;SDS011;3035;49.928;8.410;2022-08-01T13:39:43;60.43;;;3.20;;
6013;SDS011;3035;49.928;8.410;2022-08-01T13:42:09;1.80;;;1.60;;
6013;SDS011;3035;49.928;8.410;2022-08-01T13:44:37;3.77;;;1.47;;
6013;SDS011;3035;49.928;8.410;2022-08-01T13:47:06;2.23;;;1.70;;
6013;SDS011;3035;49.928;8.410;2022-08-01T13:49:34;1.60;;;1.50;;
6013;SDS011;3035;49.928;8.410;2022-08-01T13:52:03;5.20;;;1.57;;
6013;SDS011;3035;49.928;8.410;2022-08-01T13:54:32;1.67;;;1.57;;
6013;SDS011;3035;49.928;8.410;2022-08-01T13:57:00;2.10;;;1.70;;
6013;SDS011;3035;49.928;8.410;2022-08-01T13:59:29;2.93;;;1.40;;
6013;SDS011;3035;49.928;8.410;2022-08-01T14:01:57;2.30;;;1.70;;
6013;SDS011;3035;49.928;8.410;2022-08-01T14:04:25;5.50;;;1.50;;
6013;SDS011;3035;49.928;8.410;2022-08-01T14:06:55;1.83;;;1.63;;
6013;SDS011;3035;49.928;8.410;2022-08-01T14:09:23;7.23;;;1.40;;
6013;SDS011;3035;49.928;8.410;2022-08-01T14:11:52;2.00;;;1.60;;
6013;SDS011;3035;49.928;8.410;2022-08-01T14:14:20;5.43;;;1.50;;
6013;SDS011;3035;49.928;8.410;2022-08-01T14:16:48;1.90;;;1.60;;
6013;SDS011;3035;49.928;8.410;2022-08-01T14:19:17;2.40;;;1.40;;
6013;SDS011;3035;49.928;8.410;2022-08-01T14:21:45;1.80;;;1.43;;
6013;SDS011;3035;49.928;8.410;2022-08-01T14:24:14;4.70;;;1.70;;
6013;SDS011;3035;49.928;8.410;2022-08-01T14:26:42;2.10;;;1.67;;
6013;SDS011;3035;49.928;8.410;2022-08-01T14:29:11;2.80;;;1.90;;
6013;SDS011;3035;49.928;8.410;2022-08-01T14:31:40;1.60;;;1.37;;
6013;SDS011;3035;49.928;8.410;2022-08-01T14:34:08;2.60;;;1.90;;
6013;SDS011;3035;49.928;8.410;2022-08-01T14:36:37;2.03;;;1.60;;
6013;SDS011;3035;49.928;8.410;2022-08-01T14:39:05;1.83;;;1.53;;
6013;SDS011;3035;49.928;8.410;2022-08-01T14:41:33;2.27;;;1.83;;
6013;SDS011;3035;49.928;8.410;2022-08-01T14:44:01;1.63;;;1.40;;
6013;SDS011;3035;49.928;8.410;2022-08-01T14:46:30;2.10;;;1.87;;
6013;SDS011;3035;49.928;8.410;2022-08-01T14:48:58;2.47;;;2.00;;
6013;SDS011;3035;49.928;8.410;2022-08-01T14:51:26;2.70;;;2.50;;
6013;SDS011;3035;49.928;8.410;2022-08-01T14:53:55;2.40;;;1.97;;
6013;SDS011;3035;49.928;8.410;2022-08-01T14:56:24;8.13;;;1.90;;
6013;SDS011;3035;49.928;8.410;2022-08-01T14:58:52;5.30;;;2.30;;
6013;SDS011;3035;49.928;8.410;2022-08-01T15:01:20;8.83;;;2.20;;
6013;SDS011;3035;49.928;8.410;2022-08-01T15:03:48;6.83;;;2.23;;
6013;SDS011;3035;49.928;8.410;2022-08-01T15:06:17;10.63;;;1.60;;
6013;SDS011;3035;49.928;8.410;2022-08-01T15:08:46;3.90;;;1.63;;
6013;SDS011;3035;49.928;8.410;2022-08-01T15:11:15;2.60;;;1.60;;
6013;SDS011;3035;49.928;8.410;2022-08-01T15:13:43;5.53;;;1.97;;
6013;SDS011;3035;49.928;8.410;2022-08-01T15:16:11;2.83;;;2.20;;
6013;SDS011;3035;49.928;8.410;2022-08-01T15:18:39;2.70;;;2.00;;
6013;SDS011;3035;49.928;8.410;2022-08-01T15:21:07;7.97;;;2.73;;
6013;SDS011;3035;49.928;8.410;2022-08-01T15:23:37;7.03;;;3.07;;
6013;SDS011;3035;49.928;8.410;2022-08-01T15:26:05;8.57;;;3.17;;
6013;SDS011;3035;49.928;8.410;2022-08-01T15:28:33;10.97;;;3.10;;
6013;SDS011;3035;49.928;8.410;2022-08-01T15:31:01;3.43;;;2.50;;
6013;SDS011;3035;49.928;8.410;2022-08-01T15:33:30;3.97;;;2.80;;
6013;SDS011;3035;49.928;8.410;2022-08-01T15:35:58;10.00;;;2.90;;
6013;SDS011;3035;49.928;8.410;2022-08-01T15:38:26;8.47;;;3.03;;
6013;SDS011;3035;49.928;8.410;2022-08-01T15:40:55;12.37;;;4.03;;
6013;SDS011;3035;49.928;8.410;2022-08-01T15:43:24;12.20;;;3.30;;
6013;SDS011;3035;49.928;8.410;2022-08-01T15:45:52;7.33;;;3.03;;
6013;SDS011;3035;49.928;8.410;2022-08-01T15:48:20;3.93;;;2.63;;
6013;SDS011;3035;49.928;8.410;2022-08-01T15:50:48;4.90;;;2.40;;
6013;SDS011;3035;49.928;8.410;2022-08-01T15:53:16;12.97;;;2.30;;
6013;SDS011;3035;49.928;8.410;2022-08-01T15:55:44;2.80;;;2.40;;
6013;SDS011;3035;49.928;8.410;2022-08-01T15:58:13;4.07;;;2.33;;
6013;SDS011;3035;49.928;8.410;2022-08-01T16:00:42;8.10;;;2.43;;
6013;SDS011;3035;49.928;8.410;2022-08-01T16:03:10;8.70;;;2.30;;
6013;SDS011;3035;49.928;8.410;2022-08-01T16:05:39;9.00;;;2.60;;
6013;SDS011;3035;49.928;8.410;2022-08-01T16:08:08;6.80;;;2.47;;